Onil, Spain
Current Conditions -  °F | °C
As of 10:30 AM on Saturday 20 Dec 2014 (Local Time) from LEAL Reporting Station
Few Clouds Few Clouds  
Wind Chill: 57°   Ceiling: Unl
Heat Index: 57°   Visibility: 6mi
Dew Point: 46°   Wind: 3mph
Humidity: 67%   Direction: 280°W
Pressure: 30.45"   Gusts: NA
Location:  38.63°N, 0.67°W
Report Text: LEAL 200930Z 28003KT 9999 FEW012 14/08 Q1031 NOSIG
Loading
Personal Weather Stations






























Interactive Weather Map New forecast layout! Learn more

10-Day Weather Forecast

Advertisements
Track Severe Weather on mobile